createdAt,value
2023-01-22T00:01:49.327Z,77.18
2023-01-22T00:04:52.124Z,77.76
2023-01-22T00:07:55.176Z,77.61
2023-01-22T00:10:58.207Z,78.10
2023-01-22T00:14:01.176Z,77.24
2023-01-22T00:17:05.195Z,77.47
2023-01-22T00:20:08.935Z,77.01
2023-01-22T00:23:11.639Z,77.15
2023-01-22T00:26:17.092Z,76.64
2023-01-22T00:29:20.339Z,76.45
2023-01-22T00:32:24.308Z,75.96
2023-01-22T00:35:27.056Z,76.13
2023-01-22T00:38:29.728Z,76.74
2023-01-22T00:41:32.292Z,76.01
2023-01-22T00:44:34.901Z,76.43
2023-01-22T00:47:39.111Z,76.09
2023-01-22T00:50:41.759Z,76.15
2023-01-22T00:53:44.843Z,75.94
2023-01-22T00:56:47.617Z,76.19
2023-01-22T00:59:50.251Z,76.37
2023-01-22T01:03:12.089Z,75.88
2023-01-22T01:06:16.907Z,75.80
2023-01-22T01:09:19.641Z,75.91
2023-01-22T01:12:22.267Z,75.58
2023-01-22T01:15:24.931Z,75.29
2023-01-22T01:18:28.943Z,75.21
2023-01-22T01:21:32.106Z,74.89
2023-01-22T01:24:36.469Z,75.67
2023-01-22T01:27:39.300Z,75.25
2023-01-22T01:30:41.875Z,75.65
2023-01-22T01:33:46.317Z,75.20
2023-01-22T01:36:49.794Z,75.17
2023-01-22T01:39:52.928Z,74.85
2023-01-22T01:42:55.651Z,75.33
2023-01-22T01:45:59.887Z,75.49
2023-01-22T01:49:04.084Z,75.09
2023-01-22T01:52:09.733Z,75.61
2023-01-22T01:55:13.174Z,75.31
2023-01-22T01:58:21.471Z,75.50
2023-01-22T02:01:24.251Z,75.14
2023-01-22T02:04:28.309Z,75.32
2023-01-22T02:07:31.093Z,75.49
2023-01-22T02:10:34.116Z,74.92
2023-01-22T02:13:37.416Z,75.29
2023-01-22T02:16:40.095Z,74.90
2023-01-22T02:19:44.904Z,74.97
2023-01-22T02:22:49.795Z,74.95
2023-01-22T02:25:52.883Z,75.11
2023-01-22T02:28:55.477Z,75.32
2023-01-22T02:31:58.278Z,74.97
2023-01-22T02:35:01.069Z,74.90
2023-01-22T02:38:05.408Z,74.61
2023-01-22T02:41:08.383Z,74.75
2023-01-22T02:44:11.118Z,74.70
2023-01-22T02:47:13.766Z,75.19
2023-01-22T02:50:16.824Z,75.13
2023-01-22T02:53:20.926Z,74.83
2023-01-22T02:56:23.408Z,74.56
2023-01-22T02:59:26.274Z,74.36
2023-01-22T03:02:29.067Z,74.75
2023-01-22T03:05:34.399Z,74.72
2023-01-22T03:08:38.900Z,74.63
2023-01-22T03:11:43.015Z,74.96
2023-01-22T03:15:03.271Z,74.93
2023-01-22T03:18:23.629Z,74.44
2023-01-22T03:21:26.454Z,74.28
2023-01-22T03:24:30.642Z,74.75
2023-01-22T03:27:33.636Z,74.62
2023-01-22T03:30:36.252Z,74.51
2023-01-22T03:33:38.935Z,74.39
2023-01-22T03:36:41.563Z,75.54
2023-01-22T03:39:45.600Z,76.19
2023-01-22T03:42:48.212Z,75.49
2023-01-22T03:45:50.847Z,75.59
2023-01-22T03:48:54.132Z,75.95
2023-01-22T03:51:57.083Z,76.04
2023-01-22T03:55:01.021Z,75.78
2023-01-22T03:58:03.784Z,75.44
2023-01-22T04:01:08.851Z,74.85
2023-01-22T04:04:11.446Z,75.00
2023-01-22T04:07:14.106Z,75.44
2023-01-22T04:10:19.667Z,75.39
2023-01-22T04:13:22.460Z,75.47
2023-01-22T04:16:25.048Z,75.26
2023-01-22T04:19:27.732Z,75.36
2023-01-22T04:22:30.381Z,75.15
2023-01-22T04:25:34.594Z,75.58
2023-01-22T04:28:37.262Z,75.14
2023-01-22T04:31:39.998Z,74.92
2023-01-22T04:34:44.246Z,75.46
2023-01-22T04:37:46.979Z,75.09
2023-01-22T04:40:51.101Z,75.12
2023-01-22T04:43:53.705Z,75.13
2023-01-22T04:46:56.395Z,75.16
2023-01-22T04:49:58.931Z,75.87
2023-01-22T04:53:02.987Z,75.31
2023-01-22T04:56:07.676Z,75.08
2023-01-22T04:59:10.587Z,75.35
2023-01-22T05:02:13.251Z,75.04
2023-01-22T05:05:16.291Z,75.20
2023-01-22T05:08:18.948Z,74.61
2023-01-22T05:11:22.878Z,74.61
2023-01-22T05:14:25.470Z,74.41
2023-01-22T05:17:28.105Z,74.75
2023-01-22T05:20:30.703Z,74.55
2023-01-22T05:23:33.347Z,74.48
2023-01-22T05:26:37.324Z,74.43
2023-01-22T05:29:40.164Z,74.36
2023-01-22T05:32:42.819Z,74.78
2023-01-22T05:35:45.652Z,75.03
2023-01-22T05:38:48.234Z,74.86
2023-01-22T05:41:54.291Z,74.86
2023-01-22T05:44:56.823Z,74.49
2023-01-22T05:47:59.509Z,74.24
2023-01-22T05:51:04.210Z,74.63
2023-01-22T05:54:06.996Z,74.80
2023-01-22T05:57:10.957Z,74.84
2023-01-22T06:00:13.851Z,75.62
2023-01-22T06:03:16.562Z,74.91
2023-01-22T06:06:19.605Z,75.63
2023-01-22T06:09:22.602Z,75.51
2023-01-22T06:12:26.687Z,75.72
2023-01-22T06:15:29.360Z,76.07
2023-01-22T06:18:32.139Z,75.76
2023-01-22T06:21:34.919Z,76.20
2023-01-22T06:24:37.789Z,76.91
2023-01-22T06:27:41.687Z,76.92
2023-01-22T06:30:44.210Z,76.98
2023-01-22T06:33:46.841Z,77.21
2023-01-22T06:36:49.647Z,77.23
2023-01-22T06:39:52.202Z,77.38
2023-01-22T06:42:57.719Z,77.62
2023-01-22T06:46:00.409Z,77.69
2023-01-22T06:49:03.301Z,77.98
2023-01-22T06:52:06.865Z,77.90
2023-01-22T06:55:10.216Z,77.89
2023-01-22T06:58:14.565Z,78.00
2023-01-22T07:01:17.161Z,77.21
2023-01-22T07:04:19.777Z,76.88
2023-01-22T07:07:22.573Z,76.45
2023-01-22T07:10:25.281Z,76.99
2023-01-22T07:13:29.177Z,76.86
2023-01-22T07:16:31.666Z,77.02
2023-01-22T07:19:34.409Z,77.25
2023-01-22T07:22:37.008Z,77.31
2023-01-22T07:25:39.660Z,77.77
2023-01-22T07:28:44.720Z,76.84
2023-01-22T07:31:49.856Z,76.65
2023-01-22T07:34:52.873Z,77.08
2023-01-22T07:37:57.070Z,76.75
2023-01-22T07:41:04.356Z,75.94
2023-01-22T07:44:09.526Z,75.33
2023-01-22T07:47:12.102Z,75.79
2023-01-22T07:50:15.090Z,75.49
2023-01-22T07:53:18.537Z,75.55
2023-01-22T07:56:21.298Z,76.23
2023-01-22T07:59:25.282Z,76.52
2023-01-22T08:02:28.128Z,75.69
2023-01-22T08:05:30.806Z,75.22
2023-01-22T08:08:33.387Z,75.36
2023-01-22T08:11:36.403Z,74.92
2023-01-22T08:14:46.260Z,74.63
2023-01-22T08:17:50.024Z,75.25
2023-01-22T08:20:53.060Z,74.68
2023-01-22T08:23:55.631Z,74.99
2023-01-22T08:26:58.522Z,74.73
2023-01-22T08:30:02.606Z,74.61
2023-01-22T08:33:05.542Z,75.91
2023-01-22T08:36:09.354Z,75.90
2023-01-22T08:39:13.414Z,75.11
2023-01-22T08:42:16.089Z,75.01
2023-01-22T08:45:20.262Z,75.44
2023-01-22T08:48:22.854Z,75.02
2023-01-22T08:51:26.648Z,75.88
2023-01-22T08:54:29.236Z,75.94
2023-01-22T08:57:31.949Z,75.71
2023-01-22T09:00:36.258Z,75.46
2023-01-22T09:03:38.917Z,75.72
2023-01-22T09:06:42.133Z,76.13
2023-01-22T09:09:45.770Z,74.71
2023-01-22T09:12:57.648Z,72.81
2023-01-22T09:16:05.903Z,71.63
2023-01-22T09:19:08.559Z,70.42
2023-01-22T09:22:11.248Z,70.20
2023-01-22T09:25:13.987Z,70.28
2023-01-22T09:28:16.710Z,70.34
2023-01-22T09:31:20.834Z,70.53
2023-01-22T09:34:23.483Z,71.82
2023-01-22T09:37:26.183Z,71.59
2023-01-22T09:40:30.537Z,71.02
2023-01-22T09:43:36.278Z,69.73
2023-01-22T09:46:43.348Z,69.23
2023-01-22T09:49:52.455Z,69.29
2023-01-22T09:52:56.742Z,68.70
2023-01-22T09:55:59.673Z,69.60
2023-01-22T09:59:03.395Z,69.78
2023-01-22T10:02:20.058Z,70.33
2023-01-22T10:05:25.257Z,70.44
2023-01-22T10:08:32.431Z,69.93
2023-01-22T10:11:35.094Z,69.87
2023-01-22T10:14:37.727Z,68.60
2023-01-22T10:17:42.090Z,68.73
2023-01-22T10:20:44.834Z,69.15
2023-01-22T10:23:48.910Z,69.27
2023-01-22T10:26:54.469Z,69.24
2023-01-22T10:29:59.481Z,68.63
2023-01-22T10:33:06.223Z,67.56
2023-01-22T10:36:12.474Z,66.76
2023-01-22T10:39:16.756Z,67.21
2023-01-22T10:42:21.584Z,66.56
2023-01-22T10:45:24.475Z,66.51
2023-01-22T10:48:28.857Z,67.06
2023-01-22T10:51:34.253Z,66.65
2023-01-22T10:54:39.827Z,65.58
2023-01-22T10:57:54.435Z,65.82
2023-01-22T11:00:59.747Z,66.46
2023-01-22T11:04:14.378Z,66.58
2023-01-22T11:07:21.350Z,66.05
2023-01-22T11:10:27.053Z,64.68
2023-01-22T11:13:49.801Z,64.00
2023-01-22T11:16:53.283Z,63.22
2023-01-22T11:20:01.294Z,63.45
2023-01-22T11:23:14.937Z,63.57
2023-01-22T11:26:27.485Z,62.97
2023-01-22T11:29:46.993Z,62.90
2023-01-22T11:33:00.488Z,62.89
2023-01-22T11:36:09.875Z,61.28
2023-01-22T11:39:19.303Z,61.66
2023-01-22T11:42:37.098Z,63.42
2023-01-22T11:45:57.071Z,63.62
2023-01-22T11:49:09.725Z,63.93
2023-01-22T11:52:31.064Z,64.69
2023-01-22T11:55:52.157Z,64.45
2023-01-22T11:59:00.229Z,63.73
2023-01-22T12:02:13.177Z,63.67
2023-01-22T12:05:26.167Z,64.80
2023-01-22T12:08:39.086Z,64.86
2023-01-22T12:11:54.931Z,65.38
2023-01-22T12:15:08.493Z,65.56
2023-01-22T12:18:34.103Z,66.38
2023-01-22T12:21:49.656Z,67.26
2023-01-22T12:24:58.787Z,66.65
2023-01-22T12:28:04.567Z,65.51
2023-01-22T12:31:11.732Z,65.50
2023-01-22T12:34:19.616Z,66.97
2023-01-22T12:37:25.380Z,67.91
2023-01-22T12:40:42.589Z,68.41
2023-01-22T12:43:50.196Z,69.25
2023-01-22T12:47:02.858Z,68.52
2023-01-22T12:50:18.189Z,68.78
2023-01-22T12:53:24.922Z,68.72
2023-01-22T12:56:33.864Z,68.78
2023-01-22T12:59:46.014Z,68.26
2023-01-22T13:02:48.774Z,68.50
2023-01-22T13:05:51.964Z,68.04
2023-01-22T13:08:54.588Z,68.26
2023-01-22T13:12:09.260Z,68.00
2023-01-22T13:15:16.570Z,68.43
2023-01-22T13:18:21.633Z,68.56
2023-01-22T13:21:28.810Z,70.32
2023-01-22T13:24:31.634Z,70.74
2023-01-22T13:27:37.533Z,70.17
2023-01-22T13:30:40.119Z,69.49
2023-01-22T13:33:53.630Z,69.34
2023-01-22T13:36:56.870Z,68.35
2023-01-22T13:39:59.517Z,68.12
2023-01-22T13:43:03.433Z,68.54
2023-01-22T13:46:05.979Z,68.76
2023-01-22T13:49:12.816Z,69.71
2023-01-22T13:52:17.704Z,69.73
2023-01-22T13:55:23.093Z,69.10
2023-01-22T13:58:47.867Z,69.91
2023-01-22T14:01:51.763Z,69.57
2023-01-22T14:04:54.602Z,68.94
2023-01-22T14:08:06.839Z,69.40
2023-01-22T14:11:09.594Z,69.14
2023-01-22T14:14:21.999Z,70.08
2023-01-22T14:17:28.689Z,69.20
2023-01-22T14:20:31.441Z,68.92
2023-01-22T14:23:34.109Z,68.65
2023-01-22T14:26:37.060Z,67.57
2023-01-22T14:29:41.586Z,67.49
2023-01-22T14:32:44.912Z,68.23
2023-01-22T14:35:47.695Z,69.24
2023-01-22T14:38:53.418Z,69.11
2023-01-22T14:41:56.145Z,68.86
2023-01-22T14:45:00.138Z,69.24
2023-01-22T14:48:04.145Z,69.40
2023-01-22T14:51:10.096Z,69.01
2023-01-22T14:54:12.792Z,68.74
2023-01-22T14:57:15.589Z,69.43
2023-01-22T15:00:20.989Z,69.14
2023-01-22T15:03:23.764Z,69.31
2023-01-22T15:06:26.990Z,70.15
2023-01-22T15:09:29.732Z,69.76
2023-01-22T15:12:32.370Z,69.64
2023-01-22T15:15:36.443Z,70.11
2023-01-22T15:18:39.740Z,70.62
2023-01-22T15:21:42.586Z,70.11
2023-01-22T15:24:45.299Z,70.04
2023-01-22T15:27:47.985Z,70.27
2023-01-22T15:30:53.645Z,70.70
2023-01-22T15:33:57.744Z,70.93
2023-01-22T15:37:00.847Z,70.67
2023-01-22T15:40:03.636Z,70.10
2023-01-22T15:43:06.597Z,70.00
2023-01-22T15:46:10.832Z,70.31
2023-01-22T15:49:13.494Z,70.64
2023-01-22T15:52:17.140Z,70.78
2023-01-22T15:55:19.845Z,70.16
2023-01-22T15:58:22.668Z,70.00
2023-01-22T16:01:27.954Z,70.26
2023-01-22T16:04:30.642Z,69.91
2023-01-22T16:07:33.418Z,70.59
2023-01-22T16:10:36.081Z,70.50
2023-01-22T16:13:39.100Z,70.14
2023-01-22T16:16:43.234Z,69.91
2023-01-22T16:19:45.952Z,70.46
2023-01-22T16:22:48.815Z,70.11
2023-01-22T16:25:51.406Z,69.95
2023-01-22T16:28:56.188Z,70.19
2023-01-22T16:32:00.280Z,70.40
2023-01-22T16:35:02.968Z,70.11
2023-01-22T16:38:05.672Z,70.47
2023-01-22T16:41:25.026Z,70.17
2023-01-22T16:44:27.957Z,70.65
2023-01-22T16:47:32.211Z,70.09
2023-01-22T16:54:01.308Z,70.30
2023-01-22T16:57:06.368Z,70.79
2023-01-22T17:00:11.400Z,71.23
2023-01-22T17:03:15.423Z,71.90
2023-01-22T17:06:23.130Z,71.05
2023-01-22T17:09:27.944Z,71.20
2023-01-22T17:12:30.912Z,71.16
2023-01-22T17:15:33.690Z,71.52
2023-01-22T17:18:37.780Z,71.04
2023-01-22T17:21:40.620Z,71.52
2023-01-22T17:24:43.739Z,71.19
2023-01-22T17:27:46.355Z,70.91
2023-01-22T17:30:49.187Z,70.40
2023-01-22T17:33:55.328Z,70.82
2023-01-22T17:36:57.981Z,70.88
2023-01-22T17:40:00.691Z,71.00
2023-01-22T17:43:03.608Z,71.12
2023-01-22T17:46:12.011Z,70.71
2023-01-22T17:49:16.995Z,71.10
2023-01-22T17:52:20.565Z,71.57
2023-01-22T17:55:23.323Z,70.94
2023-01-22T17:58:25.926Z,70.48
2023-01-22T18:01:30.373Z,70.68
2023-01-22T18:04:34.829Z,71.37
2023-01-22T18:07:37.669Z,71.19
2023-01-22T18:10:40.358Z,71.19
2023-01-22T18:13:43.807Z,71.46
2023-01-22T18:16:46.658Z,71.89
2023-01-22T18:19:50.650Z,72.65
2023-01-22T18:22:53.989Z,72.55
2023-01-22T18:25:58.283Z,73.45
2023-01-22T18:29:01.243Z,73.95
2023-01-22T18:32:03.907Z,74.09
2023-01-22T18:35:09.552Z,74.70
2023-01-22T18:38:12.564Z,75.02
2023-01-22T18:41:16.513Z,75.56
2023-01-22T18:44:27.405Z,75.64
2023-01-22T18:47:34.042Z,75.88
2023-01-22T18:50:38.810Z,75.71
2023-01-22T18:53:41.899Z,76.43
2023-01-22T18:56:44.828Z,77.04
2023-01-22T18:59:47.428Z,77.57
2023-01-22T19:02:54.793Z,77.43
2023-01-22T19:05:59.610Z,77.83
2023-01-22T19:09:04.238Z,77.32
2023-01-22T19:12:08.164Z,77.50
2023-01-22T19:15:11.299Z,77.57
2023-01-22T19:18:14.045Z,77.54
2023-01-22T19:21:20.179Z,78.42
2023-01-22T19:24:28.206Z,77.62
2023-01-22T19:27:31.268Z,77.23
2023-01-22T19:30:34.245Z,76.50
2023-01-22T19:33:36.800Z,77.10
2023-01-22T19:36:41.939Z,77.78
2023-01-22T19:39:44.609Z,77.73
2023-01-22T19:42:47.471Z,77.65
2023-01-22T19:45:50.063Z,77.36
2023-01-22T19:48:53.828Z,77.29
2023-01-22T19:51:58.031Z,77.32
2023-01-22T19:55:00.863Z,77.58
2023-01-22T19:58:03.490Z,77.56
2023-01-22T20:01:09.631Z,78.55
2023-01-22T20:04:20.421Z,77.90
2023-01-22T20:07:25.189Z,77.89
2023-01-22T20:10:27.896Z,77.59
2023-01-22T20:13:30.952Z,76.70
2023-01-22T20:16:33.635Z,77.18
2023-01-22T20:19:38.097Z,76.83
2023-01-22T20:22:42.025Z,76.77
2023-01-22T20:25:44.611Z,76.88
2023-01-22T20:28:48.820Z,76.39
2023-01-22T20:31:53.274Z,76.13
2023-01-22T20:34:56.080Z,76.28
2023-01-22T20:38:00.148Z,76.34
2023-01-22T20:41:05.457Z,76.51
2023-01-22T20:44:09.136Z,76.62
2023-01-22T20:47:11.718Z,77.22
2023-01-22T20:50:14.539Z,78.07
2023-01-22T20:53:19.851Z,77.87
2023-01-22T20:56:25.366Z,77.44
2023-01-22T20:59:28.676Z,77.75
2023-01-22T21:02:31.461Z,77.54
2023-01-22T21:05:34.234Z,77.88
2023-01-22T21:08:38.558Z,77.71
2023-01-22T21:11:42.376Z,77.63
2023-01-22T21:14:44.802Z,77.42
2023-01-22T21:17:47.544Z,77.63
2023-01-22T21:20:50.396Z,77.02
2023-01-22T21:23:55.568Z,78.41
2023-01-22T21:26:58.192Z,77.57
2023-01-22T21:30:00.776Z,77.99
2023-01-22T21:33:03.414Z,79.14
2023-01-22T21:36:08.428Z,79.47
2023-01-22T21:39:14.931Z,78.93
2023-01-22T21:42:35.207Z,79.30
2023-01-22T21:45:59.233Z,78.69
2023-01-22T21:49:16.290Z,78.77
2023-01-22T21:52:19.331Z,78.44
2023-01-22T21:55:23.584Z,77.99
2023-01-22T21:58:26.196Z,78.01
2023-01-22T22:01:30.860Z,77.83
2023-01-22T22:04:33.925Z,78.56
2023-01-22T22:07:36.592Z,78.88
2023-01-22T22:10:40.637Z,79.02
2023-01-22T22:13:44.404Z,79.57
2023-01-22T22:16:47.603Z,78.84
2023-01-22T22:19:51.911Z,78.32
2023-01-22T22:22:55.900Z,78.36
2023-01-22T22:26:00.625Z,77.56
2023-01-22T22:29:03.269Z,77.93
2023-01-22T22:32:06.800Z,78.14
2023-01-22T22:35:10.170Z,78.46
2023-01-22T22:38:13.014Z,78.43
2023-01-22T22:41:18.204Z,78.39
2023-01-22T22:44:20.969Z,78.23
2023-01-22T22:47:23.936Z,78.34
2023-01-22T22:50:26.573Z,78.40
2023-01-22T22:53:29.355Z,78.05
2023-01-22T22:56:33.533Z,78.49
2023-01-22T22:59:36.151Z,78.11
2023-01-22T23:02:38.832Z,78.06
2023-01-22T23:05:41.531Z,78.01
2023-01-22T23:08:45.545Z,78.08
2023-01-22T23:11:51.692Z,79.18
2023-01-22T23:14:54.385Z,79.36
2023-01-22T23:17:58.005Z,79.70
2023-01-22T23:21:04.534Z,79.05
2023-01-22T23:24:07.975Z,79.57
2023-01-22T23:27:12.008Z,78.87
2023-01-22T23:30:14.768Z,78.85
2023-01-22T23:33:17.399Z,78.96
2023-01-22T23:36:20.227Z,78.46
2023-01-22T23:39:23.039Z,78.48
2023-01-22T23:42:27.083Z,78.61
2023-01-22T23:45:29.842Z,78.37
2023-01-22T23:48:32.433Z,78.08
2023-01-22T23:51:35.022Z,77.88
2023-01-22T23:54:37.758Z,78.27
2023-01-22T23:57:41.961Z,78.87
